Weather at Hoevenen Airfield

Public forecast

Using degrees Celsius for public forecast. Weather courtesy of forecast.io.

Closest aviation weather report (METAR) to Hoevenen Airfield

Closest report is Antwerp International Airport (Deurne), 7.5 nm (13.9 km) SSE. Retrieved 2021/09/21 13:20 UTC (0 seconds ago):

EBAW 211320Z VRB04KT CAVOK 18/07 Q1030 NOSIG

Closest aviation forecast (TAF) to Hoevenen Airfield

Forecast is more than 12 hours old.

Closest forecast is Antwerp International Airport (Deurne), 7.5 nm (13.9 km) SSE. Retrieved 2020-09-24 00:30 UTC (12 months ago):

TAF TAF EBAW 232300Z 2400/2412 25011KT 9999 SCT030